sensor_id;sensor_type;location;lat;lon;timestamp;temperature;humidity
69031;DHT22;56083;48.774;8.942;2022-09-16T00:00:23;12.30;99.90
69031;DHT22;56083;48.774;8.942;2022-09-16T00:02:51;12.30;99.90
69031;DHT22;56083;48.774;8.942;2022-09-16T00:05:17;12.30;99.90
69031;DHT22;56083;48.774;8.942;2022-09-16T00:07:42;12.30;99.90
69031;DHT22;56083;48.774;8.942;2022-09-16T00:10:09;12.30;99.90
69031;DHT22;56083;48.774;8.942;2022-09-16T00:12:34;12.40;99.90
69031;DHT22;56083;48.774;8.942;2022-09-16T00:15:00;12.40;99.90
69031;DHT22;56083;48.774;8.942;2022-09-16T00:17:25;12.40;99.90
69031;DHT22;56083;48.774;8.942;2022-09-16T00:19:51;12.40;99.90
69031;DHT22;56083;48.774;8.942;2022-09-16T00:22:17;12.40;99.90
69031;DHT22;56083;48.774;8.942;2022-09-16T00:24:43;12.40;99.90
69031;DHT22;56083;48.774;8.942;2022-09-16T00:27:09;12.30;99.90
69031;DHT22;56083;48.774;8.942;2022-09-16T00:29:35;12.30;99.90
69031;DHT22;56083;48.774;8.942;2022-09-16T00:32:01;12.30;99.90
69031;DHT22;56083;48.774;8.942;2022-09-16T00:34:27;12.40;99.90
69031;DHT22;56083;48.774;8.942;2022-09-16T00:50:29;12.50;99.90
69031;DHT22;56083;48.774;8.942;2022-09-16T00:52:56;12.50;99.90
69031;DHT22;56083;48.774;8.942;2022-09-16T00:55:26;12.40;99.90
69031;DHT22;56083;48.774;8.942;2022-09-16T00:57:52;12.50;99.90
69031;DHT22;56083;48.774;8.942;2022-09-16T01:00:19;12.50;99.90
69031;DHT22;56083;48.774;8.942;2022-09-16T01:02:45;12.50;99.90
69031;DHT22;56083;48.774;8.942;2022-09-16T01:05:15;12.40;99.90
69031;DHT22;56083;48.774;8.942;2022-09-16T01:07:44;12.40;99.90
69031;DHT22;56083;48.774;8.942;2022-09-16T01:10:11;12.40;99.90
69031;DHT22;56083;48.774;8.942;2022-09-16T01:12:37;12.40;99.90
69031;DHT22;56083;48.774;8.942;2022-09-16T01:15:05;12.50;99.90
69031;DHT22;56083;48.774;8.942;2022-09-16T01:31:41;12.30;99.90
69031;DHT22;56083;48.774;8.942;2022-09-16T01:47:36;12.10;99.90
69031;DHT22;56083;48.774;8.942;2022-09-16T01:53:38;12.10;99.90
69031;DHT22;56083;48.774;8.942;2022-09-16T01:55:51;12.10;99.90
69031;DHT22;56083;48.774;8.942;2022-09-16T01:58:31;12.20;99.90
69031;DHT22;56083;48.774;8.942;2022-09-16T02:01:04;12.20;99.90
69031;DHT22;56083;48.774;8.942;2022-09-16T02:03:34;12.30;99.90
69031;DHT22;56083;48.774;8.942;2022-09-16T02:06:08;12.40;99.90
69031;DHT22;56083;48.774;8.942;2022-09-16T02:08:45;12.40;99.90
69031;DHT22;56083;48.774;8.942;2022-09-16T02:11:15;12.40;99.90
69031;DHT22;56083;48.774;8.942;2022-09-16T02:13:47;12.50;99.90
69031;DHT22;56083;48.774;8.942;2022-09-16T02:16:17;12.50;99.90
69031;DHT22;56083;48.774;8.942;2022-09-16T02:18:53;12.50;99.90
69031;DHT22;56083;48.774;8.942;2022-09-16T02:21:21;12.50;99.90
69031;DHT22;56083;48.774;8.942;2022-09-16T02:23:52;12.50;99.90
69031;DHT22;56083;48.774;8.942;2022-09-16T02:26:32;12.50;99.90
69031;DHT22;56083;48.774;8.942;2022-09-16T02:29:01;12.50;99.90
69031;DHT22;56083;48.774;8.942;2022-09-16T02:31:32;12.50;99.90
69031;DHT22;56083;48.774;8.942;2022-09-16T02:34:08;12.50;99.90
69031;DHT22;56083;48.774;8.942;2022-09-16T02:36:39;12.50;99.90
69031;DHT22;56083;48.774;8.942;2022-09-16T02:39:09;12.50;99.90
69031;DHT22;56083;48.774;8.942;2022-09-16T02:41:38;12.50;99.90
69031;DHT22;56083;48.774;8.942;2022-09-16T02:44:04;12.50;99.90
69031;DHT22;56083;48.774;8.942;2022-09-16T02:46:52;12.50;99.90
69031;DHT22;56083;48.774;8.942;2022-09-16T02:57:08;12.50;99.90
69031;DHT22;56083;48.774;8.942;2022-09-16T02:59:34;12.50;99.90
69031;DHT22;56083;48.774;8.942;2022-09-16T03:01:59;12.60;99.90
69031;DHT22;56083;48.774;8.942;2022-09-16T03:04:27;12.60;99.90
69031;DHT22;56083;48.774;8.942;2022-09-16T03:06:52;12.60;99.90
69031;DHT22;56083;48.774;8.942;2022-09-16T03:09:18;12.60;99.90
69031;DHT22;56083;48.774;8.942;2022-09-16T03:12:14;12.60;99.90
69031;DHT22;56083;48.774;8.942;2022-09-16T03:20:10;12.50;99.90
69031;DHT22;56083;48.774;8.942;2022-09-16T03:28:40;12.50;99.90
69031;DHT22;56083;48.774;8.942;2022-09-16T03:31:12;12.50;99.90
69031;DHT22;56083;48.774;8.942;2022-09-16T03:34:08;12.50;99.90
69031;DHT22;56083;48.774;8.942;2022-09-16T03:36:43;12.40;99.90
69031;DHT22;56083;48.774;8.942;2022-09-16T03:39:10;12.40;99.90
69031;DHT22;56083;48.774;8.942;2022-09-16T03:41:38;12.40;99.90
69031;DHT22;56083;48.774;8.942;2022-09-16T03:44:03;12.40;99.90
69031;DHT22;56083;48.774;8.942;2022-09-16T03:46:29;12.40;99.90
69031;DHT22;56083;48.774;8.942;2022-09-16T03:48:55;12.40;99.90
69031;DHT22;56083;48.774;8.942;2022-09-16T03:51:23;12.40;99.90
69031;DHT22;56083;48.774;8.942;2022-09-16T03:53:50;12.50;99.90
69031;DHT22;56083;48.774;8.942;2022-09-16T03:56:16;12.50;99.90
69031;DHT22;56083;48.774;8.942;2022-09-16T03:58:41;12.50;99.90
69031;DHT22;56083;48.774;8.942;2022-09-16T04:01:07;12.60;99.90
69031;DHT22;56083;48.774;8.942;2022-09-16T04:03:33;12.60;99.90
69031;DHT22;56083;48.774;8.942;2022-09-16T04:06:00;12.60;99.90
69031;DHT22;56083;48.774;8.942;2022-09-16T04:08:26;12.60;99.90
69031;DHT22;56083;48.774;8.942;2022-09-16T04:11:00;12.50;99.90
69031;DHT22;56083;48.774;8.942;2022-09-16T04:13:29;12.50;99.90
69031;DHT22;56083;48.774;8.942;2022-09-16T04:15:55;12.50;99.90
69031;DHT22;56083;48.774;8.942;2022-09-16T04:18:21;12.50;99.90
69031;DHT22;56083;48.774;8.942;2022-09-16T04:20:46;12.50;99.90
69031;DHT22;56083;48.774;8.942;2022-09-16T04:23:12;12.40;99.90
69031;DHT22;56083;48.774;8.942;2022-09-16T04:25:38;12.30;99.90
69031;DHT22;56083;48.774;8.942;2022-09-16T04:28:05;12.20;99.90
69031;DHT22;56083;48.774;8.942;2022-09-16T04:30:31;12.30;99.90
69031;DHT22;56083;48.774;8.942;2022-09-16T04:32:57;12.30;99.90
69031;DHT22;56083;48.774;8.942;2022-09-16T04:35:23;12.30;99.90
69031;DHT22;56083;48.774;8.942;2022-09-16T04:37:50;12.30;99.90
69031;DHT22;56083;48.774;8.942;2022-09-16T04:40:17;12.40;99.90
69031;DHT22;56083;48.774;8.942;2022-09-16T04:42:49;12.40;99.90
69031;DHT22;56083;48.774;8.942;2022-09-16T04:45:16;12.30;99.90
69031;DHT22;56083;48.774;8.942;2022-09-16T04:47:41;12.40;99.90
69031;DHT22;56083;48.774;8.942;2022-09-16T04:50:07;12.40;99.90
69031;DHT22;56083;48.774;8.942;2022-09-16T04:52:34;12.40;99.90
69031;DHT22;56083;48.774;8.942;2022-09-16T04:54:59;12.40;99.90
69031;DHT22;56083;48.774;8.942;2022-09-16T04:57:25;12.50;99.90
69031;DHT22;56083;48.774;8.942;2022-09-16T04:59:54;12.50;99.90
69031;DHT22;56083;48.774;8.942;2022-09-16T05:02:19;12.50;99.90
69031;DHT22;56083;48.774;8.942;2022-09-16T05:04:45;12.50;99.90
69031;DHT22;56083;48.774;8.942;2022-09-16T05:07:10;12.50;99.90
69031;DHT22;56083;48.774;8.942;2022-09-16T05:09:36;12.50;99.90
69031;DHT22;56083;48.774;8.942;2022-09-16T05:12:02;12.50;99.90
69031;DHT22;56083;48.774;8.942;2022-09-16T05:14:27;12.50;99.90
69031;DHT22;56083;48.774;8.942;2022-09-16T05:16:53;12.50;99.90
69031;DHT22;56083;48.774;8.942;2022-09-16T05:19:19;12.50;99.90
69031;DHT22;56083;48.774;8.942;2022-09-16T05:21:44;12.50;99.90
69031;DHT22;56083;48.774;8.942;2022-09-16T05:24:12;12.50;99.90
69031;DHT22;56083;48.774;8.942;2022-09-16T05:29:19;12.50;99.90
69031;DHT22;56083;48.774;8.942;2022-09-16T05:31:52;12.50;99.90
69031;DHT22;56083;48.774;8.942;2022-09-16T05:34:20;12.50;99.90
69031;DHT22;56083;48.774;8.942;2022-09-16T05:36:48;12.60;99.90
69031;DHT22;56083;48.774;8.942;2022-09-16T05:39:16;12.60;99.90
69031;DHT22;56083;48.774;8.942;2022-09-16T05:41:43;12.60;99.90
69031;DHT22;56083;48.774;8.942;2022-09-16T05:44:09;12.60;99.90
69031;DHT22;56083;48.774;8.942;2022-09-16T05:49:41;12.60;99.90
69031;DHT22;56083;48.774;8.942;2022-09-16T05:52:07;12.60;99.90
69031;DHT22;56083;48.774;8.942;2022-09-16T05:54:33;12.60;99.90
69031;DHT22;56083;48.774;8.942;2022-09-16T05:56:58;12.50;99.90
69031;DHT22;56083;48.774;8.942;2022-09-16T05:59:24;12.50;99.90
69031;DHT22;56083;48.774;8.942;2022-09-16T06:01:50;12.50;99.90
69031;DHT22;56083;48.774;8.942;2022-09-16T06:04:16;12.50;99.90
69031;DHT22;56083;48.774;8.942;2022-09-16T06:06:43;12.50;99.90
69031;DHT22;56083;48.774;8.942;2022-09-16T06:09:21;12.50;99.90
69031;DHT22;56083;48.774;8.942;2022-09-16T06:11:49;12.50;99.90
69031;DHT22;56083;48.774;8.942;2022-09-16T06:14:16;12.50;99.90
69031;DHT22;56083;48.774;8.942;2022-09-16T06:16:43;12.50;99.90
69031;DHT22;56083;48.774;8.942;2022-09-16T06:19:14;12.50;99.90
69031;DHT22;56083;48.774;8.942;2022-09-16T06:21:49;12.60;99.90
69031;DHT22;56083;48.774;8.942;2022-09-16T06:24:16;12.70;99.90
69031;DHT22;56083;48.774;8.942;2022-09-16T06:26:43;12.80;99.90
69031;DHT22;56083;48.774;8.942;2022-09-16T06:29:18;12.90;99.90
69031;DHT22;56083;48.774;8.942;2022-09-16T06:31:44;13.00;99.90
69031;DHT22;56083;48.774;8.942;2022-09-16T06:34:14;13.00;99.90
69031;DHT22;56083;48.774;8.942;2022-09-16T06:36:43;13.10;99.90
69031;DHT22;56083;48.774;8.942;2022-09-16T06:39:11;13.30;99.90
69031;DHT22;56083;48.774;8.942;2022-09-16T06:41:36;13.30;99.90
69031;DHT22;56083;48.774;8.942;2022-09-16T06:44:11;13.30;99.90
69031;DHT22;56083;48.774;8.942;2022-09-16T06:46:37;13.30;99.90
69031;DHT22;56083;48.774;8.942;2022-09-16T06:49:09;13.40;99.90
69031;DHT22;56083;48.774;8.942;2022-09-16T06:51:55;13.50;99.90
69031;DHT22;56083;48.774;8.942;2022-09-16T06:54:21;13.40;99.90
69031;DHT22;56083;48.774;8.942;2022-09-16T06:56:47;13.40;99.90
69031;DHT22;56083;48.774;8.942;2022-09-16T06:59:15;13.50;99.90
69031;DHT22;56083;48.774;8.942;2022-09-16T07:01:41;13.30;99.90
69031;DHT22;56083;48.774;8.942;2022-09-16T07:04:10;13.30;99.90
69031;DHT22;56083;48.774;8.942;2022-09-16T07:06:37;13.20;99.90
69031;DHT22;56083;48.774;8.942;2022-09-16T07:09:09;13.00;99.90
69031;DHT22;56083;48.774;8.942;2022-09-16T07:12:07;13.00;99.90
69031;DHT22;56083;48.774;8.942;2022-09-16T07:14:42;12.80;99.90
69031;DHT22;56083;48.774;8.942;2022-09-16T07:17:07;12.70;99.90
69031;DHT22;56083;48.774;8.942;2022-09-16T07:19:36;12.60;99.90
69031;DHT22;56083;48.774;8.942;2022-09-16T07:22:05;12.60;99.90
69031;DHT22;56083;48.774;8.942;2022-09-16T07:24:30;12.50;99.90
69031;DHT22;56083;48.774;8.942;2022-09-16T07:26:56;12.50;99.90
69031;DHT22;56083;48.774;8.942;2022-09-16T07:29:22;12.50;99.90
69031;DHT22;56083;48.774;8.942;2022-09-16T07:31:47;12.40;99.90
69031;DHT22;56083;48.774;8.942;2022-09-16T07:34:13;12.30;99.90
69031;DHT22;56083;48.774;8.942;2022-09-16T07:36:56;12.40;99.90
69031;DHT22;56083;48.774;8.942;2022-09-16T07:39:24;12.30;99.90
69031;DHT22;56083;48.774;8.942;2022-09-16T07:41:50;12.40;99.90
69031;DHT22;56083;48.774;8.942;2022-09-16T07:44:18;12.50;99.90
69031;DHT22;56083;48.774;8.942;2022-09-16T07:46:44;12.50;99.90
69031;DHT22;56083;48.774;8.942;2022-09-16T07:49:13;12.50;99.90
69031;DHT22;56083;48.774;8.942;2022-09-16T07:51:39;12.60;99.90
69031;DHT22;56083;48.774;8.942;2022-09-16T07:54:18;12.60;99.90
69031;DHT22;56083;48.774;8.942;2022-09-16T07:56:53;12.80;99.90
69031;DHT22;56083;48.774;8.942;2022-09-16T07:59:19;12.80;99.90
69031;DHT22;56083;48.774;8.942;2022-09-16T08:01:48;12.90;99.90
69031;DHT22;56083;48.774;8.942;2022-09-16T08:04:21;13.00;99.90
69031;DHT22;56083;48.774;8.942;2022-09-16T08:06:47;13.20;99.90
69031;DHT22;56083;48.774;8.942;2022-09-16T08:09:13;13.30;99.90
69031;DHT22;56083;48.774;8.942;2022-09-16T08:11:39;13.50;99.90
69031;DHT22;56083;48.774;8.942;2022-09-16T08:14:08;13.80;99.90
69031;DHT22;56083;48.774;8.942;2022-09-16T08:16:39;14.20;99.90
69031;DHT22;56083;48.774;8.942;2022-09-16T08:19:08;14.30;99.90
69031;DHT22;56083;48.774;8.942;2022-09-16T08:21:33;14.60;99.90
69031;DHT22;56083;48.774;8.942;2022-09-16T08:23:59;14.70;99.90
69031;DHT22;56083;48.774;8.942;2022-09-16T08:26:25;14.60;99.90
69031;DHT22;56083;48.774;8.942;2022-09-16T08:28:54;14.60;99.90
69031;DHT22;56083;48.774;8.942;2022-09-16T08:31:22;14.70;99.90
69031;DHT22;56083;48.774;8.942;2022-09-16T08:34:06;14.50;99.90
69031;DHT22;56083;48.774;8.942;2022-09-16T08:36:54;14.40;99.90
69031;DHT22;56083;48.774;8.942;2022-09-16T08:39:20;14.40;99.90
69031;DHT22;56083;48.774;8.942;2022-09-16T08:47:26;14.10;99.90
69031;DHT22;56083;48.774;8.942;2022-09-16T08:49:58;14.10;99.90
69031;DHT22;56083;48.774;8.942;2022-09-16T08:52:36;14.20;99.90
69031;DHT22;56083;48.774;8.942;2022-09-16T08:55:03;14.30;99.90
69031;DHT22;56083;48.774;8.942;2022-09-16T08:57:34;14.20;99.90
69031;DHT22;56083;48.774;8.942;2022-09-16T09:00:14;14.10;99.90
69031;DHT22;56083;48.774;8.942;2022-09-16T09:02:56;14.10;99.90
69031;DHT22;56083;48.774;8.942;2022-09-16T09:05:30;14.10;99.90
69031;DHT22;56083;48.774;8.942;2022-09-16T09:08:09;14.00;99.90
69031;DHT22;56083;48.774;8.942;2022-09-16T09:10:50;13.80;99.90
69031;DHT22;56083;48.774;8.942;2022-09-16T09:18:55;13.60;99.90
69031;DHT22;56083;48.774;8.942;2022-09-16T09:27:21;13.90;99.90
69031;DHT22;56083;48.774;8.942;2022-09-16T09:30:22;13.90;99.90
69031;DHT22;56083;48.774;8.942;2022-09-16T09:41:11;14.40;99.90
69031;DHT22;56083;48.774;8.942;2022-09-16T09:46:38;14.10;99.90
69031;DHT22;56083;48.774;8.942;2022-09-16T09:49:32;14.00;99.90
69031;DHT22;56083;48.774;8.942;2022-09-16T09:52:10;13.90;99.90
69031;DHT22;56083;48.774;8.942;2022-09-16T09:54:37;13.80;99.90
69031;DHT22;56083;48.774;8.942;2022-09-16T09:57:26;13.60;99.90
69031;DHT22;56083;48.774;8.942;2022-09-16T10:00:02;13.60;99.90
69031;DHT22;56083;48.774;8.942;2022-09-16T10:02:34;13.60;99.90
69031;DHT22;56083;48.774;8.942;2022-09-16T10:05:01;13.50;99.90
69031;DHT22;56083;48.774;8.942;2022-09-16T10:07:27;13.50;99.90
69031;DHT22;56083;48.774;8.942;2022-09-16T10:10:16;13.30;99.90
69031;DHT22;56083;48.774;8.942;2022-09-16T10:12:43;13.20;99.90
69031;DHT22;56083;48.774;8.942;2022-09-16T10:15:24;13.30;99.90
69031;DHT22;56083;48.774;8.942;2022-09-16T10:17:52;13.30;99.90
69031;DHT22;56083;48.774;8.942;2022-09-16T10:22:59;13.40;99.90
69031;DHT22;56083;48.774;8.942;2022-09-16T10:25:25;13.60;99.90
69031;DHT22;56083;48.774;8.942;2022-09-16T10:27:59;13.70;99.90
69031;DHT22;56083;48.774;8.942;2022-09-16T10:30:41;13.80;99.90
69031;DHT22;56083;48.774;8.942;2022-09-16T10:35:59;14.40;99.90
69031;DHT22;56083;48.774;8.942;2022-09-16T10:38:45;15.10;99.90
69031;DHT22;56083;48.774;8.942;2022-09-16T10:41:17;15.20;99.90
69031;DHT22;56083;48.774;8.942;2022-09-16T10:46:18;14.90;99.90
69031;DHT22;56083;48.774;8.942;2022-09-16T10:48:45;14.70;99.90
69031;DHT22;56083;48.774;8.942;2022-09-16T10:51:26;14.70;99.90
69031;DHT22;56083;48.774;8.942;2022-09-16T10:53:56;14.70;99.90
69031;DHT22;56083;48.774;8.942;2022-09-16T10:56:24;14.50;99.90
69031;DHT22;56083;48.774;8.942;2022-09-16T11:04:24;14.20;99.90
69031;DHT22;56083;48.774;8.942;2022-09-16T11:12:33;13.90;99.90
69031;DHT22;56083;48.774;8.942;2022-09-16T11:42:33;15.20;99.90
69031;DHT22;56083;48.774;8.942;2022-09-16T11:56:39;20.20;99.90
69031;DHT22;56083;48.774;8.942;2022-09-16T12:01:44;20.80;99.90
69031;DHT22;56083;48.774;8.942;2022-09-16T12:04:31;19.70;99.90
69031;DHT22;56083;48.774;8.942;2022-09-16T12:09:53;18.60;99.90
69031;DHT22;56083;48.774;8.942;2022-09-16T12:12:24;18.10;99.90
69031;DHT22;56083;48.774;8.942;2022-09-16T12:14:54;19.00;99.90
69031;DHT22;56083;48.774;8.942;2022-09-16T12:17:27;19.20;99.90
69031;DHT22;56083;48.774;8.942;2022-09-16T12:20:11;18.40;99.90
69031;DHT22;56083;48.774;8.942;2022-09-16T12:22:39;17.80;99.90
69031;DHT22;56083;48.774;8.942;2022-09-16T12:25:13;17.30;99.90
69031;DHT22;56083;48.774;8.942;2022-09-16T12:28:11;17.00;99.90
69031;DHT22;56083;48.774;8.942;2022-09-16T12:30:42;16.40;99.90
69031;DHT22;56083;48.774;8.942;2022-09-16T12:33:16;16.20;99.90
69031;DHT22;56083;48.774;8.942;2022-09-16T12:35:47;16.10;99.90
69031;DHT22;56083;48.774;8.942;2022-09-16T12:38:16;15.90;99.90
69031;DHT22;56083;48.774;8.942;2022-09-16T13:00:18;22.40;99.90
69031;DHT22;56083;48.774;8.942;2022-09-16T13:02:55;23.30;99.90
69031;DHT22;56083;48.774;8.942;2022-09-16T13:05:28;23.60;99.90
69031;DHT22;56083;48.774;8.942;2022-09-16T13:07:57;23.70;99.90
69031;DHT22;56083;48.774;8.942;2022-09-16T13:12:54;24.20;99.90
69031;DHT22;56083;48.774;8.942;2022-09-16T13:15:27;24.90;99.90
69031;DHT22;56083;48.774;8.942;2022-09-16T13:17:53;25.20;99.50
69031;DHT22;56083;48.774;8.942;2022-09-16T13:20:31;25.60;95.40
69031;DHT22;56083;48.774;8.942;2022-09-16T13:23:02;25.30;95.10
69031;DHT22;56083;48.774;8.942;2022-09-16T13:25:47;24.50;96.90
69031;DHT22;56083;48.774;8.942;2022-09-16T13:38:56;23.00;97.60
69031;DHT22;56083;48.774;8.942;2022-09-16T13:49:48;22.00;98.20
69031;DHT22;56083;48.774;8.942;2022-09-16T13:52:39;22.10;98.00
69031;DHT22;56083;48.774;8.942;2022-09-16T13:55:15;21.40;98.80
69031;DHT22;56083;48.774;8.942;2022-09-16T13:57:58;20.00;99.90
69031;DHT22;56083;48.774;8.942;2022-09-16T14:00:28;19.10;99.90
69031;DHT22;56083;48.774;8.942;2022-09-16T14:11:52;17.20;99.90
69031;DHT22;56083;48.774;8.942;2022-09-16T14:14:22;17.30;99.90
69031;DHT22;56083;48.774;8.942;2022-09-16T14:16:49;17.40;99.90
69031;DHT22;56083;48.774;8.942;2022-09-16T14:19:25;18.00;99.90
69031;DHT22;56083;48.774;8.942;2022-09-16T14:22:05;18.10;99.90
69031;DHT22;56083;48.774;8.942;2022-09-16T14:24:38;17.90;99.90
69031;DHT22;56083;48.774;8.942;2022-09-16T14:27:16;17.60;99.90
69031;DHT22;56083;48.774;8.942;2022-09-16T14:29:56;18.30;99.90
69031;DHT22;56083;48.774;8.942;2022-09-16T14:32:32;19.80;99.90
69031;DHT22;56083;48.774;8.942;2022-09-16T14:35:02;19.50;99.90
69031;DHT22;56083;48.774;8.942;2022-09-16T14:37:33;19.60;99.90
69031;DHT22;56083;48.774;8.942;2022-09-16T14:40:14;19.20;99.90
69031;DHT22;56083;48.774;8.942;2022-09-16T14:43:06;18.70;99.90
69031;DHT22;56083;48.774;8.942;2022-09-16T14:45:34;19.90;99.90
69031;DHT22;56083;48.774;8.942;2022-09-16T14:48:05;20.40;99.90
69031;DHT22;56083;48.774;8.942;2022-09-16T14:50:36;19.80;99.90
69031;DHT22;56083;48.774;8.942;2022-09-16T14:53:24;20.50;99.90
69031;DHT22;56083;48.774;8.942;2022-09-16T14:55:50;21.00;99.90
69031;DHT22;56083;48.774;8.942;2022-09-16T14:58:16;21.10;99.90
69031;DHT22;56083;48.774;8.942;2022-09-16T15:01:08;20.80;99.90
69031;DHT22;56083;48.774;8.942;2022-09-16T15:03:43;19.40;99.90
69031;DHT22;56083;48.774;8.942;2022-09-16T15:06:20;18.10;99.90
69031;DHT22;56083;48.774;8.942;2022-09-16T15:09:03;17.50;99.90
69031;DHT22;56083;48.774;8.942;2022-09-16T15:11:49;17.30;99.90
69031;DHT22;56083;48.774;8.942;2022-09-16T15:14:18;16.90;99.90
69031;DHT22;56083;48.774;8.942;2022-09-16T15:16:52;17.60;99.90
69031;DHT22;56083;48.774;8.942;2022-09-16T15:19:22;17.90;99.90
69031;DHT22;56083;48.774;8.942;2022-09-16T15:21:48;17.60;99.90
69031;DHT22;56083;48.774;8.942;2022-09-16T15:24:25;17.80;99.90
69031;DHT22;56083;48.774;8.942;2022-09-16T15:26:54;18.70;99.90
69031;DHT22;56083;48.774;8.942;2022-09-16T15:31:49;20.90;99.90
69031;DHT22;56083;48.774;8.942;2022-09-16T15:36:58;21.60;99.90
69031;DHT22;56083;48.774;8.942;2022-09-16T15:42:10;20.00;99.90
69031;DHT22;56083;48.774;8.942;2022-09-16T15:44:46;18.50;99.90
69031;DHT22;56083;48.774;8.942;2022-09-16T15:47:30;17.70;99.90
69031;DHT22;56083;48.774;8.942;2022-09-16T15:50:08;18.20;99.90
69031;DHT22;56083;48.774;8.942;2022-09-16T15:52:59;19.00;99.90
69031;DHT22;56083;48.774;8.942;2022-09-16T15:58:40;19.40;99.90
69031;DHT22;56083;48.774;8.942;2022-09-16T16:01:44;19.40;99.90
69031;DHT22;56083;48.774;8.942;2022-09-16T16:04:12;19.60;99.90
69031;DHT22;56083;48.774;8.942;2022-09-16T16:06:47;19.80;99.90
69031;DHT22;56083;48.774;8.942;2022-09-16T16:12:05;18.90;99.90
69031;DHT22;56083;48.774;8.942;2022-09-16T16:14:33;19.00;99.90
69031;DHT22;56083;48.774;8.942;2022-09-16T16:17:01;19.10;99.90
69031;DHT22;56083;48.774;8.942;2022-09-16T16:19:28;18.70;99.90
69031;DHT22;56083;48.774;8.942;2022-09-16T16:21:54;18.70;99.90
69031;DHT22;56083;48.774;8.942;2022-09-16T16:24:25;18.20;99.90
69031;DHT22;56083;48.774;8.942;2022-09-16T16:26:51;17.90;99.90
69031;DHT22;56083;48.774;8.942;2022-09-16T16:29:19;17.50;99.90
69031;DHT22;56083;48.774;8.942;2022-09-16T16:31:59;16.90;99.90
69031;DHT22;56083;48.774;8.942;2022-09-16T16:34:25;16.30;99.90
69031;DHT22;56083;48.774;8.942;2022-09-16T16:36:50;15.70;99.90
69031;DHT22;56083;48.774;8.942;2022-09-16T16:39:16;15.30;99.90
69031;DHT22;56083;48.774;8.942;2022-09-16T16:41:42;15.00;99.90
69031;DHT22;56083;48.774;8.942;2022-09-16T16:44:07;14.70;99.90
69031;DHT22;56083;48.774;8.942;2022-09-16T16:46:33;14.60;99.90
69031;DHT22;56083;48.774;8.942;2022-09-16T16:48:59;14.60;99.90
69031;DHT22;56083;48.774;8.942;2022-09-16T16:51:24;14.70;99.90
69031;DHT22;56083;48.774;8.942;2022-09-16T16:53:50;14.70;99.90
69031;DHT22;56083;48.774;8.942;2022-09-16T16:56:17;14.60;99.90
69031;DHT22;56083;48.774;8.942;2022-09-16T16:58:43;14.40;99.90
69031;DHT22;56083;48.774;8.942;2022-09-16T17:01:10;14.20;99.90
69031;DHT22;56083;48.774;8.942;2022-09-16T17:03:41;14.10;99.90
69031;DHT22;56083;48.774;8.942;2022-09-16T17:06:08;14.00;99.90
69031;DHT22;56083;48.774;8.942;2022-09-16T17:08:34;14.00;99.90
69031;DHT22;56083;48.774;8.942;2022-09-16T17:11:16;13.90;99.90
69031;DHT22;56083;48.774;8.942;2022-09-16T17:13:47;13.90;99.90
69031;DHT22;56083;48.774;8.942;2022-09-16T17:16:16;13.80;99.90
69031;DHT22;56083;48.774;8.942;2022-09-16T17:18:43;13.70;99.90
69031;DHT22;56083;48.774;8.942;2022-09-16T17:21:14;13.50;99.90
69031;DHT22;56083;48.774;8.942;2022-09-16T17:23:40;13.20;99.90
69031;DHT22;56083;48.774;8.942;2022-09-16T17:26:07;12.90;99.90
69031;DHT22;56083;48.774;8.942;2022-09-16T17:28:34;12.80;99.90
69031;DHT22;56083;48.774;8.942;2022-09-16T17:31:10;12.60;99.90
69031;DHT22;56083;48.774;8.942;2022-09-16T17:33:36;12.40;99.90
69031;DHT22;56083;48.774;8.942;2022-09-16T17:36:04;12.30;99.90
69031;DHT22;56083;48.774;8.942;2022-09-16T17:38:30;12.10;99.90
69031;DHT22;56083;48.774;8.942;2022-09-16T17:41:10;11.90;99.90
69031;DHT22;56083;48.774;8.942;2022-09-16T17:43:42;11.80;99.90
69031;DHT22;56083;48.774;8.942;2022-09-16T17:46:16;11.80;99.90
69031;DHT22;56083;48.774;8.942;2022-09-16T17:48:47;11.70;99.90
69031;DHT22;56083;48.774;8.942;2022-09-16T17:51:39;11.70;99.90
69031;DHT22;56083;48.774;8.942;2022-09-16T17:54:05;11.70;99.90
69031;DHT22;56083;48.774;8.942;2022-09-16T17:56:33;11.80;99.90
69031;DHT22;56083;48.774;8.942;2022-09-16T17:58:58;11.70;99.90
69031;DHT22;56083;48.774;8.942;2022-09-16T18:01:25;11.70;99.90
69031;DHT22;56083;48.774;8.942;2022-09-16T18:03:53;11.60;99.90
69031;DHT22;56083;48.774;8.942;2022-09-16T18:06:22;11.60;99.90
69031;DHT22;56083;48.774;8.942;2022-09-16T18:08:48;11.60;99.90
69031;DHT22;56083;48.774;8.942;2022-09-16T18:11:16;11.50;99.90
69031;DHT22;56083;48.774;8.942;2022-09-16T18:13:42;11.50;99.90
69031;DHT22;56083;48.774;8.942;2022-09-16T18:16:09;11.50;99.90
69031;DHT22;56083;48.774;8.942;2022-09-16T18:18:36;11.40;99.90
69031;DHT22;56083;48.774;8.942;2022-09-16T18:21:07;11.40;99.90
69031;DHT22;56083;48.774;8.942;2022-09-16T18:23:33;11.40;99.90
69031;DHT22;56083;48.774;8.942;2022-09-16T18:26:07;11.30;99.90
69031;DHT22;56083;48.774;8.942;2022-09-16T18:28:38;11.30;99.90
69031;DHT22;56083;48.774;8.942;2022-09-16T18:31:07;11.30;99.90
69031;DHT22;56083;48.774;8.942;2022-09-16T18:33:33;11.30;99.90
69031;DHT22;56083;48.774;8.942;2022-09-16T18:36:00;11.20;99.90
69031;DHT22;56083;48.774;8.942;2022-09-16T18:38:28;11.10;99.90
69031;DHT22;56083;48.774;8.942;2022-09-16T18:41:07;11.10;99.90
69031;DHT22;56083;48.774;8.942;2022-09-16T18:43:37;11.10;99.90
69031;DHT22;56083;48.774;8.942;2022-09-16T18:46:13;11.10;99.90
69031;DHT22;56083;48.774;8.942;2022-09-16T18:48:40;11.10;99.90
69031;DHT22;56083;48.774;8.942;2022-09-16T18:51:15;11.10;99.90
69031;DHT22;56083;48.774;8.942;2022-09-16T18:53:40;11.10;99.90
69031;DHT22;56083;48.774;8.942;2022-09-16T18:56:14;11.10;99.90
69031;DHT22;56083;48.774;8.942;2022-09-16T18:58:40;11.00;99.90
69031;DHT22;56083;48.774;8.942;2022-09-16T19:01:12;10.90;99.90
69031;DHT22;56083;48.774;8.942;2022-09-16T19:03:42;10.90;99.90
69031;DHT22;56083;48.774;8.942;2022-09-16T19:06:08;10.80;99.90
69031;DHT22;56083;48.774;8.942;2022-09-16T19:08:36;10.80;99.90
69031;DHT22;56083;48.774;8.942;2022-09-16T19:11:03;10.90;99.90
69031;DHT22;56083;48.774;8.942;2022-09-16T19:13:28;10.90;99.90
69031;DHT22;56083;48.774;8.942;2022-09-16T19:15:55;11.00;99.90
69031;DHT22;56083;48.774;8.942;2022-09-16T19:18:22;11.00;99.90
69031;DHT22;56083;48.774;8.942;2022-09-16T19:20:48;10.90;99.90
69031;DHT22;56083;48.774;8.942;2022-09-16T19:23:13;10.90;99.90
69031;DHT22;56083;48.774;8.942;2022-09-16T19:25:39;10.90;99.90
69031;DHT22;56083;48.774;8.942;2022-09-16T19:28:05;10.90;99.90
69031;DHT22;56083;48.774;8.942;2022-09-16T19:30:31;10.80;99.90
69031;DHT22;56083;48.774;8.942;2022-09-16T19:32:57;10.80;99.90
69031;DHT22;56083;48.774;8.942;2022-09-16T19:35:22;10.80;99.90